createdAt,value
2022-08-22T00:00:45.417Z,100973.56
2022-08-22T00:02:46.232Z,100939.19
2022-08-22T00:02:57.904Z,100969.75
2022-08-22T00:03:07.177Z,100903.41
2022-08-22T00:03:07.845Z,100972.72
2022-08-22T00:03:10.013Z,100968.16
2022-08-22T00:03:41.465Z,100977.81
2022-08-22T00:06:37.600Z,100975.00
2022-08-22T00:09:47.466Z,100969.63
2022-08-22T00:12:29.473Z,100970.63
2022-08-22T00:15:42.049Z,100968.13
2022-08-22T00:18:15.550Z,100972.44
2022-08-22T00:20:52.706Z,100981.31
2022-08-22T00:24:00.152Z,100982.91
2022-08-22T00:26:33.761Z,100975.72
2022-08-22T00:29:09.019Z,100975.72
2022-08-22T00:31:51.610Z,100979.13
2022-08-22T00:34:32.484Z,100979.13
2022-08-22T00:37:15.473Z,100980.97
2022-08-22T00:39:49.492Z,100982.69
2022-08-22T00:42:41.473Z,100971.22
2022-08-22T00:45:34.492Z,100979.06
2022-08-22T00:48:24.582Z,100982.56
2022-08-22T00:51:22.425Z,100975.44
2022-08-22T00:54:17.451Z,100964.09
2022-08-22T00:57:13.438Z,100965.03
2022-08-22T00:59:47.740Z,100977.25
2022-08-22T01:02:37.555Z,100978.13
2022-08-22T01:05:34.097Z,100977.19
2022-08-22T01:08:21.922Z,100979.88
2022-08-22T01:11:34.277Z,100980.75
2022-08-22T01:14:34.692Z,100965.91
2022-08-22T01:17:25.819Z,100970.06
2022-08-22T01:20:28.111Z,100969.19
2022-08-22T01:23:20.976Z,100972.81
2022-08-22T01:26:14.409Z,100985.31
2022-08-22T01:29:14.843Z,100983.56
2022-08-22T01:32:22.874Z,100978.19
2022-08-22T01:34:54.125Z,100985.53
2022-08-22T01:37:31.539Z,100979.44
2022-08-22T01:40:09.389Z,100985.28
2022-08-22T01:43:01.772Z,100977.56
2022-08-22T01:45:48.085Z,100983.84
2022-08-22T01:48:38.765Z,100984.69
2022-08-22T01:51:21.695Z,100983.66
2022-08-22T01:54:07.568Z,100984.53
2022-08-22T01:56:44.819Z,100982.00
2022-08-22T01:59:33.844Z,100989.22
2022-08-22T02:02:27.478Z,100985.81
2022-08-22T02:05:22.048Z,100978.75
2022-08-22T02:08:15.807Z,100974.25
2022-08-22T02:11:05.904Z,100959.34
2022-08-22T02:14:07.283Z,100977.59
2022-08-22T02:16:42.359Z,100969.81
2022-08-22T02:19:13.604Z,100977.66
2022-08-22T02:21:55.784Z,100967.00
2022-08-22T02:24:44.716Z,100967.63
2022-08-22T02:27:47.309Z,100965.66
2022-08-22T02:30:30.449Z,100973.72
2022-08-22T02:33:10.747Z,100972.69
2022-08-22T02:35:59.944Z,100975.47
2022-08-22T02:38:38.706Z,100965.59
2022-08-22T02:41:16.105Z,100978.06
2022-08-22T02:44:15.614Z,100971.69
2022-08-22T02:46:59.592Z,100961.06
2022-08-22T02:50:03.623Z,100967.19
2022-08-22T02:52:58.401Z,100975.31
2022-08-22T02:55:52.684Z,100968.13
2022-08-22T02:58:39.131Z,100978.94
2022-08-22T03:01:17.173Z,100967.31
2022-08-22T03:03:49.622Z,100976.56
2022-08-22T03:06:35.122Z,100966.75
2022-08-22T03:09:22.523Z,100984.88
2022-08-22T03:12:13.930Z,100979.78
2022-08-22T03:15:06.975Z,100972.78
2022-08-22T03:17:51.001Z,100969.44
2022-08-22T03:20:41.406Z,100964.13
2022-08-22T03:23:36.024Z,100968.78
2022-08-22T03:26:15.402Z,100965.56
2022-08-22T03:28:59.261Z,100965.78
2022-08-22T03:31:32.438Z,100971.44
2022-08-22T03:34:25.059Z,100963.78
2022-08-22T03:37:20.197Z,100958.88
2022-08-22T03:39:56.142Z,100974.47
2022-08-22T03:42:35.364Z,100967.59
2022-08-22T03:45:21.630Z,100977.06
2022-08-22T03:48:35.333Z,100974.84
2022-08-22T03:51:32.100Z,100977.22
2022-08-22T03:54:44.939Z,100961.56
2022-08-22T03:57:59.004Z,100971.00
2022-08-22T04:00:50.813Z,100971.50
2022-08-22T04:04:01.200Z,100975.25
2022-08-22T04:06:45.325Z,100980.84
2022-08-22T04:09:43.960Z,100983.75
2022-08-22T04:12:54.925Z,100981.31
2022-08-22T04:15:48.777Z,100964.22
2022-08-22T04:18:47.261Z,100975.75
2022-08-22T04:21:25.743Z,100987.41
2022-08-22T04:24:32.310Z,100991.13
2022-08-22T04:27:18.545Z,101001.09
2022-08-22T04:30:12.746Z,100988.84
2022-08-22T04:32:51.326Z,100986.25
2022-08-22T04:35:36.029Z,100989.22
2022-08-22T04:38:16.977Z,100990.09
2022-08-22T04:40:55.635Z,100997.06
2022-08-22T04:44:13.475Z,101005.94
2022-08-22T04:46:52.581Z,101007.69
2022-08-22T04:49:39.796Z,101011.94
2022-08-22T04:52:24.365Z,101007.63
2022-08-22T04:55:33.429Z,101006.44
2022-08-22T04:58:24.460Z,101018.00
2022-08-22T05:01:16.639Z,101008.16
2022-08-22T05:04:01.358Z,101010.72
2022-08-22T05:06:37.934Z,100994.81
2022-08-22T05:09:16.195Z,101005.00
2022-08-22T05:11:53.054Z,101015.59
2022-08-22T05:14:41.595Z,101009.06
2022-08-22T05:17:18.677Z,101017.00
2022-08-22T05:19:56.650Z,101001.72
2022-08-22T05:22:32.309Z,101002.53
2022-08-22T05:25:10.899Z,101002.41
2022-08-22T05:27:48.193Z,100999.66
2022-08-22T05:30:24.237Z,101016.50
2022-08-22T05:32:55.466Z,101004.72
2022-08-22T05:35:40.719Z,101010.09
2022-08-22T05:38:16.094Z,101012.66
2022-08-22T05:40:57.546Z,101009.91
2022-08-22T05:43:29.296Z,101005.31
2022-08-22T05:46:03.034Z,101017.41
2022-08-22T05:48:42.569Z,101015.03
2022-08-22T05:51:25.214Z,101021.66
2022-08-22T05:54:12.077Z,101018.31
2022-08-22T05:56:48.217Z,101021.31
2022-08-22T05:59:33.357Z,101020.59
2022-08-22T06:02:14.540Z,101028.16
2022-08-22T06:04:54.618Z,101020.78
2022-08-22T06:07:39.953Z,101037.66
2022-08-22T06:10:24.620Z,101042.44
2022-08-22T06:13:03.646Z,101042.41
2022-08-22T06:15:59.989Z,101042.13
2022-08-22T06:18:32.572Z,101024.31
2022-08-22T06:21:10.069Z,101044.28
2022-08-22T06:23:54.230Z,101055.75
2022-08-22T06:26:30.989Z,101044.41
2022-08-22T06:29:02.935Z,101048.44
2022-08-22T06:31:43.156Z,101044.94
2022-08-22T06:34:27.962Z,101050.53
2022-08-22T06:37:05.453Z,101047.94
2022-08-22T06:39:41.832Z,101054.56
2022-08-22T06:42:22.654Z,101050.19
2022-08-22T06:45:02.897Z,101061.28
2022-08-22T06:47:53.551Z,101057.28
2022-08-22T06:50:31.066Z,101046.09
2022-08-22T06:53:15.964Z,101058.16
2022-08-22T06:55:51.236Z,101061.88
2022-08-22T06:58:33.845Z,101060.44
2022-08-22T07:01:13.745Z,101063.09
2022-08-22T07:03:50.477Z,101067.94
2022-08-22T07:06:39.007Z,101068.81
2022-08-22T07:09:27.499Z,101070.03
2022-08-22T07:12:03.246Z,101075.34
2022-08-22T07:14:43.010Z,101073.78
2022-08-22T07:17:23.435Z,101079.88
2022-08-22T07:20:16.301Z,101070.78
2022-08-22T07:22:58.766Z,101076.66
2022-08-22T07:25:31.690Z,101084.50
2022-08-22T07:28:06.049Z,101089.91
2022-08-22T07:31:03.468Z,101087.44
2022-08-22T07:33:44.451Z,101084.34
2022-08-22T07:36:28.383Z,101097.09
2022-08-22T07:39:20.056Z,101082.09
2022-08-22T07:42:10.679Z,101093.19
2022-08-22T07:44:54.036Z,101098.28
2022-08-22T07:47:34.167Z,101105.56
2022-08-22T07:50:10.477Z,101102.94
2022-08-22T07:52:44.629Z,101097.78
2022-08-22T07:55:23.061Z,101092.31
2022-08-22T07:58:04.075Z,101095.16
2022-08-22T08:00:43.196Z,101091.84
2022-08-22T08:03:15.141Z,101091.47
2022-08-22T08:05:46.742Z,101104.28
2022-08-22T08:08:32.270Z,101096.94
2022-08-22T08:11:05.060Z,101093.56
2022-08-22T08:13:43.345Z,101094.78
2022-08-22T08:16:24.740Z,101088.13
2022-08-22T08:18:59.245Z,101085.66
2022-08-22T08:21:37.151Z,101092.94
2022-08-22T08:24:14.233Z,101095.84
2022-08-22T08:27:11.956Z,101088.59
2022-08-22T08:29:56.417Z,101086.63
2022-08-22T08:32:31.199Z,101081.91
2022-08-22T08:35:08.122Z,101074.13
2022-08-22T08:37:48.424Z,101074.78
2022-08-22T08:40:30.863Z,101076.69
2022-08-22T08:43:40.432Z,101072.25
2022-08-22T08:46:17.731Z,101078.25
2022-08-22T08:49:11.732Z,101079.41
2022-08-22T08:51:49.043Z,101082.03
2022-08-22T08:54:54.915Z,101072.50
2022-08-22T08:57:49.838Z,101082.19
2022-08-22T09:00:54.697Z,101074.66
2022-08-22T09:03:44.012Z,101074.41
2022-08-22T09:06:38.583Z,101068.72
2022-08-22T09:09:29.172Z,101066.97
2022-08-22T09:12:07.201Z,101070.56
2022-08-22T09:15:27.562Z,101065.47
2022-08-22T09:18:13.929Z,101060.41
2022-08-22T09:21:09.929Z,101050.38
2022-08-22T09:24:21.102Z,101063.47
2022-08-22T09:27:01.986Z,101055.53
2022-08-22T09:29:51.659Z,101058.88
2022-08-22T09:32:54.786Z,101055.50
2022-08-22T09:35:42.138Z,101052.09
2022-08-22T09:38:28.970Z,101048.53
2022-08-22T09:41:17.006Z,101043.94
2022-08-22T09:44:09.004Z,101047.84
2022-08-22T09:47:02.856Z,101044.38
2022-08-22T09:49:59.413Z,101040.03
2022-08-22T09:52:50.609Z,101045.94
2022-08-22T09:55:40.069Z,101050.13
2022-08-22T09:58:31.032Z,101045.03
2022-08-22T10:01:13.425Z,101042.72
2022-08-22T10:04:02.961Z,101037.28
2022-08-22T10:06:50.798Z,101027.00
2022-08-22T10:09:31.359Z,101031.75
2022-08-22T10:12:12.927Z,101031.75
2022-08-22T10:15:09.133Z,101026.44
2022-08-22T10:17:57.589Z,101035.94
2022-08-22T10:20:36.441Z,101028.72
2022-08-22T10:23:23.102Z,101022.56
2022-08-22T10:26:22.975Z,101029.81
2022-08-22T10:29:16.343Z,101015.94
2022-08-22T10:31:58.936Z,101023.41
2022-08-22T10:34:38.128Z,101018.28
2022-08-22T10:37:25.241Z,101024.41
2022-08-22T10:40:13.024Z,101020.41
2022-08-22T10:42:53.867Z,101008.50
2022-08-22T10:45:35.573Z,101005.03
2022-08-22T10:48:09.818Z,101010.72
2022-08-22T10:50:50.453Z,101006.66
2022-08-22T10:53:37.125Z,101010.72
2022-08-22T10:56:27.329Z,101007.44
2022-08-22T10:59:17.008Z,101006.84
2022-08-22T11:02:18.623Z,101005.69
2022-08-22T11:05:24.263Z,101000.09
2022-08-22T11:08:53.307Z,101001.44
2022-08-22T11:11:54.061Z,101004.84
2022-08-22T11:14:30.989Z,101001.69
2022-08-22T11:17:28.921Z,101006.47
2022-08-22T11:20:12.156Z,101001.09
2022-08-22T11:23:22.792Z,101005.84
2022-08-22T11:26:33.505Z,101005.22
2022-08-22T11:29:26.221Z,101001.16
2022-08-22T11:32:33.562Z,101010.81
2022-08-22T11:35:17.021Z,100998.91
2022-08-22T11:38:28.056Z,100991.34
2022-08-22T11:41:12.555Z,100994.19
2022-08-22T11:44:01.226Z,100996.91
2022-08-22T11:46:45.233Z,100987.53
2022-08-22T11:49:36.819Z,100993.16
2022-08-22T11:52:13.271Z,100986.41
2022-08-22T11:55:07.889Z,100978.69
2022-08-22T11:57:52.792Z,100986.06
2022-08-22T12:00:31.933Z,100987.53
2022-08-22T12:03:35.447Z,100976.94
2022-08-22T12:06:40.474Z,100976.94
2022-08-22T12:09:43.107Z,100978.59
2022-08-22T12:12:26.498Z,100978.41
2022-08-22T12:15:24.405Z,100973.31
2022-08-22T12:18:22.734Z,100971.50
2022-08-22T12:21:19.186Z,100969.09
2022-08-22T12:24:21.034Z,100967.94
2022-08-22T12:27:18.373Z,100975.75
2022-08-22T12:30:13.923Z,100971.19
2022-08-22T12:32:53.451Z,100977.28
2022-08-22T12:35:39.950Z,100975.00
2022-08-22T12:38:28.798Z,100971.19
2022-08-22T12:41:46.711Z,100967.16
2022-08-22T12:44:49.619Z,100956.16
2022-08-22T12:47:32.132Z,100961.16
2022-08-22T12:50:18.516Z,100965.72
2022-08-22T12:53:18.225Z,100963.75
2022-08-22T12:55:55.561Z,100965.34
2022-08-22T12:58:57.592Z,100959.50
2022-08-22T13:01:36.508Z,100960.50
2022-08-22T13:04:19.330Z,100964.72
2022-08-22T13:07:23.199Z,100948.13
2022-08-22T13:10:00.712Z,100956.50
2022-08-22T13:12:47.142Z,100954.94
2022-08-22T13:15:29.178Z,100950.22
2022-08-22T13:18:28.382Z,100951.19
2022-08-22T13:20:58.183Z,100944.03
2022-08-22T13:23:39.773Z,100943.22
2022-08-22T13:26:34.059Z,100936.97
2022-08-22T13:29:26.762Z,100927.59
2022-08-22T13:32:01.512Z,100925.34
2022-08-22T13:34:44.699Z,100943.41
2022-08-22T13:37:24.477Z,100932.47
2022-08-22T13:40:02.045Z,100929.81
2022-08-22T13:42:39.970Z,100933.84
2022-08-22T13:45:16.725Z,100933.13
2022-08-22T13:47:54.280Z,100920.88
2022-08-22T13:50:37.579Z,100921.88
2022-08-22T13:53:49.795Z,100923.75
2022-08-22T13:57:11.099Z,100915.84
2022-08-22T13:59:59.469Z,100921.81
2022-08-22T14:02:59.856Z,100913.94
2022-08-22T14:05:40.021Z,100908.03
2022-08-22T14:08:31.655Z,100919.25
2022-08-22T14:11:12.469Z,100904.91
2022-08-22T14:13:49.222Z,100908.16
2022-08-22T14:16:23.376Z,100916.16
2022-08-22T14:18:58.345Z,100903.88
2022-08-22T14:21:41.856Z,100912.66
2022-08-22T14:24:30.638Z,100897.72
2022-08-22T14:27:13.190Z,100911.53
2022-08-22T14:29:54.994Z,100899.28
2022-08-22T14:32:30.883Z,100896.00
2022-08-22T14:35:37.498Z,100884.78
2022-08-22T14:38:30.245Z,100892.84
2022-08-22T14:41:23.497Z,100896.25
2022-08-22T14:43:58.127Z,100886.50
2022-08-22T14:46:42.824Z,100886.47
2022-08-22T14:49:25.309Z,100885.91
2022-08-22T14:52:22.868Z,100888.22
2022-08-22T14:55:15.944Z,100884.06
2022-08-22T14:57:56.996Z,100889.53
2022-08-22T15:00:39.690Z,100877.09
2022-08-22T15:03:34.352Z,100886.16
2022-08-22T15:06:47.577Z,100877.81
2022-08-22T15:09:57.277Z,100874.41
2022-08-22T15:12:45.049Z,100870.38
2022-08-22T15:15:49.325Z,100866.94
2022-08-22T15:18:27.676Z,100869.34
2022-08-22T15:21:12.596Z,100870.81
2022-08-22T15:23:45.158Z,100870.53
2022-08-22T15:26:31.666Z,100850.97
2022-08-22T15:29:08.414Z,100862.88
2022-08-22T15:31:42.021Z,100877.56
2022-08-22T15:34:29.977Z,100865.75
2022-08-22T15:37:16.168Z,100867.63
2022-08-22T15:40:05.781Z,100860.50
2022-08-22T15:42:43.981Z,100848.09
2022-08-22T15:45:21.740Z,100867.31
2022-08-22T15:47:54.032Z,100853.53
2022-08-22T15:50:56.933Z,100850.03
2022-08-22T15:53:33.677Z,100858.94
2022-08-22T15:56:23.345Z,100859.63
2022-08-22T15:59:25.226Z,100858.28
2022-08-22T16:02:22.155Z,100856.69
2022-08-22T16:05:13.503Z,100854.38
2022-08-22T16:07:44.767Z,100852.91
2022-08-22T16:10:21.911Z,100842.25
2022-08-22T16:13:15.525Z,100847.97
2022-08-22T16:15:46.854Z,100846.53
2022-08-22T16:18:37.066Z,100841.75
2022-08-22T16:21:23.408Z,100840.78
2022-08-22T16:23:56.385Z,100841.44
2022-08-22T16:26:30.767Z,100841.97
2022-08-22T16:29:02.118Z,100848.94
2022-08-22T16:31:48.464Z,100834.09
2022-08-22T16:34:38.004Z,100829.69
2022-08-22T16:37:12.061Z,100835.09
2022-08-22T16:39:58.859Z,100835.81
2022-08-22T16:42:43.191Z,100835.72
2022-08-22T16:45:20.547Z,100840.94
2022-08-22T16:47:58.305Z,100832.28
2022-08-22T16:50:38.209Z,100835.66
2022-08-22T16:53:21.484Z,100828.84
2022-08-22T16:56:48.230Z,100834.81
2022-08-22T16:59:38.586Z,100829.88
2022-08-22T17:02:29.704Z,100835.56
2022-08-22T17:05:24.607Z,100831.22
2022-08-22T17:08:37.008Z,100821.69
2022-08-22T17:11:31.901Z,100826.38
2022-08-22T17:14:09.295Z,100840.34
2022-08-22T17:17:13.880Z,100829.97
2022-08-22T17:19:57.530Z,100838.78
2022-08-22T17:22:59.924Z,100829.38
2022-08-22T17:25:58.486Z,100824.66
2022-08-22T17:28:47.898Z,100830.34
2022-08-22T17:31:36.861Z,100840.97
2022-08-22T17:34:25.314Z,100838.06
2022-08-22T17:37:16.711Z,100834.22
2022-08-22T17:40:03.546Z,100833.09
2022-08-22T17:42:43.933Z,100839.22
2022-08-22T17:45:42.164Z,100843.53
2022-08-22T17:48:22.475Z,100834.34
2022-08-22T17:51:00.124Z,100836.66
2022-08-22T17:53:51.027Z,100838.13
2022-08-22T17:56:28.528Z,100827.31
2022-08-22T17:58:59.843Z,100841.00
2022-08-22T18:01:52.992Z,100828.66
2022-08-22T18:04:38.857Z,100838.13
2022-08-22T18:07:10.109Z,100836.72
2022-08-22T18:09:50.226Z,100827.66
2022-08-22T18:12:34.499Z,100828.63
2022-08-22T18:15:23.010Z,100827.34
2022-08-22T18:18:04.777Z,100843.75
2022-08-22T18:21:00.372Z,100839.75
2022-08-22T18:23:40.080Z,100848.56
2022-08-22T18:26:28.406Z,100848.13
2022-08-22T18:29:18.549Z,100850.38
2022-08-22T18:32:00.181Z,100858.22
2022-08-22T18:34:43.631Z,100857.91
2022-08-22T18:37:18.093Z,100871.25
2022-08-22T18:39:58.723Z,100868.34
2022-08-22T18:42:39.326Z,100868.13
2022-08-22T18:45:18.999Z,100856.50
2022-08-22T18:47:56.351Z,100864.09
2022-08-22T18:50:33.676Z,100867.19
2022-08-22T18:53:37.600Z,100872.16
2022-08-22T18:56:18.488Z,100878.22
2022-08-22T18:59:05.979Z,100870.81
2022-08-22T19:01:51.804Z,100873.81
2022-08-22T19:04:54.230Z,100878.88
2022-08-22T19:07:54.116Z,100884.81
2022-08-22T19:10:53.854Z,100875.69
2022-08-22T19:13:45.648Z,100876.66
2022-08-22T19:16:37.580Z,100871.44
2022-08-22T19:19:21.484Z,100882.38
2022-08-22T19:22:20.806Z,100881.53
2022-08-22T19:25:13.267Z,100884.44
2022-08-22T19:28:05.940Z,100877.28
2022-08-22T19:30:46.881Z,100888.22
2022-08-22T19:33:38.424Z,100887.34
2022-08-22T19:36:12.794Z,100881.34
2022-08-22T19:38:56.902Z,100880.38
2022-08-22T19:41:52.328Z,100887.72
2022-08-22T19:44:23.572Z,100896.03
2022-08-22T19:47:26.866Z,100887.16
2022-08-22T19:50:24.007Z,100892.84
2022-08-22T19:53:35.884Z,100903.78
2022-08-22T19:57:06.818Z,100903.97
2022-08-22T20:00:07.696Z,100898.97
2022-08-22T20:03:01.839Z,100907.84
2022-08-22T20:05:42.033Z,100907.94
2022-08-22T20:08:54.073Z,100912.47
2022-08-22T20:11:28.155Z,100909.00
2022-08-22T20:14:30.996Z,100918.00
2022-08-22T20:17:05.749Z,100924.38
2022-08-22T20:19:37.035Z,100924.38
2022-08-22T20:22:17.311Z,100909.41
2022-08-22T20:24:55.126Z,100912.69
2022-08-22T20:27:26.409Z,100920.88
2022-08-22T20:30:10.801Z,100916.34
2022-08-22T20:32:50.360Z,100913.66
2022-08-22T20:35:34.092Z,100910.94
2022-08-22T20:38:09.701Z,100905.53
2022-08-22T20:41:03.320Z,100910.06
2022-08-22T20:43:45.409Z,100921.75
2022-08-22T20:46:29.100Z,100918.09
2022-08-22T20:49:01.167Z,100912.56
2022-08-22T20:51:33.584Z,100906.19
2022-08-22T20:54:18.134Z,100917.78
2022-08-22T20:56:56.932Z,100917.88
2022-08-22T20:59:30.556Z,100924.06
2022-08-22T21:02:22.107Z,100922.34
2022-08-22T21:05:04.208Z,100914.31
2022-08-22T21:07:40.371Z,100925.25
2022-08-22T21:10:36.654Z,100923.50
2022-08-22T21:13:26.175Z,100919.06
2022-08-22T21:16:19.029Z,100909.41
2022-08-22T21:18:52.274Z,100920.22
2022-08-22T21:21:28.273Z,100923.03
2022-08-22T21:24:06.857Z,100920.41
2022-08-22T21:27:00.841Z,100918.69
2022-08-22T21:29:41.994Z,100920.59
2022-08-22T21:32:13.252Z,100933.25
2022-08-22T21:34:48.554Z,100922.53
2022-08-22T21:37:39.765Z,100920.81
2022-08-22T21:40:21.362Z,100919.25
2022-08-22T21:43:10.824Z,100931.81
2022-08-22T21:45:43.653Z,100926.59
2022-08-22T21:48:56.264Z,100927.56
2022-08-22T21:51:43.710Z,100930.38
2022-08-22T21:54:30.220Z,100930.47
2022-08-22T21:57:10.369Z,100929.59
2022-08-22T21:59:51.401Z,100927.84
2022-08-22T22:02:39.643Z,100927.94
2022-08-22T22:05:14.310Z,100927.06
2022-08-22T22:07:47.437Z,100930.66
2022-08-22T22:10:20.553Z,100930.66
2022-08-22T22:12:56.270Z,100931.63
2022-08-22T22:15:31.869Z,100932.47
2022-08-22T22:18:04.598Z,100937.03
2022-08-22T22:20:36.523Z,100937.13
2022-08-22T22:23:08.522Z,100945.31
2022-08-22T22:25:42.402Z,100940.88
2022-08-22T22:28:21.588Z,100936.44
2022-08-22T22:30:53.340Z,100943.09
2022-08-22T22:33:28.816Z,100939.25
2022-08-22T22:36:06.686Z,100934.88
2022-08-22T22:38:39.920Z,100938.47
2022-08-22T22:41:11.693Z,100942.13
2022-08-22T22:43:42.991Z,100930.81
2022-08-22T22:46:14.325Z,100932.19
2022-08-22T22:48:45.837Z,100933.16
2022-08-22T22:51:17.188Z,100929.66
2022-08-22T22:53:48.792Z,100929.56
2022-08-22T22:56:23.098Z,100925.81
2022-08-22T22:59:00.812Z,100937.59
2022-08-22T23:02:05.327Z,100939.44
2022-08-22T23:04:41.428Z,100933.34
2022-08-22T23:07:14.935Z,100938.75
2022-08-22T23:09:46.580Z,100934.50
2022-08-22T23:12:18.269Z,100934.31
2022-08-22T23:14:53.671Z,100942.50
2022-08-22T23:17:25.009Z,100942.59
2022-08-22T23:19:56.329Z,100947.22
2022-08-22T23:22:27.736Z,100949.94
2022-08-22T23:24:59.073Z,100949.16
2022-08-22T23:27:31.328Z,100951.94
2022-08-22T23:30:04.813Z,100945.75
2022-08-22T23:32:37.008Z,100943.13
2022-08-22T23:35:08.835Z,100939.84
2022-08-22T23:37:40.159Z,100956.94
2022-08-22T23:40:11.689Z,100950.06
2022-08-22T23:42:43.095Z,100951.72
2022-08-22T23:45:14.498Z,100966.19
2022-08-22T23:47:45.914Z,100961.84
2022-08-22T23:50:17.271Z,100964.63
2022-08-22T23:52:48.571Z,100972.84
2022-08-22T23:55:19.930Z,100969.38
2022-08-22T23:57:51.247Z,100952.16
